createdAt,value
2018-08-31T00:01:27.226Z,102234.80
2018-08-31T00:04:39.467Z,102238.34
2018-08-31T00:07:33.300Z,102234.58
2018-08-31T00:12:50.954Z,102238.48
2018-08-31T00:15:19.838Z,102243.84
2018-08-31T00:17:48.683Z,102235.12
2018-08-31T00:20:17.463Z,102239.53
2018-08-31T00:22:46.291Z,102233.89
2018-08-31T00:26:03.300Z,102236.16
2018-08-31T00:28:50.054Z,102234.06
2018-08-31T00:32:01.948Z,102232.25
2018-08-31T00:34:53.570Z,102229.31
2018-08-31T00:37:41.375Z,102229.31
2018-08-31T00:40:46.616Z,102234.75
2018-08-31T00:43:54.064Z,102229.27
2018-08-31T00:46:23.210Z,102225.83
2018-08-31T00:48:52.339Z,102230.36
2018-08-31T00:51:21.226Z,102229.97
2018-08-31T00:53:50.080Z,102234.25
2018-08-31T00:56:18.866Z,102235.22
2018-08-31T00:58:47.728Z,102230.64
2018-08-31T01:01:16.509Z,102227.77
2018-08-31T01:03:45.571Z,102225.31
2018-08-31T01:06:14.373Z,102230.50
2018-08-31T01:08:43.205Z,102226.06
2018-08-31T01:11:12.106Z,102226.20
2018-08-31T01:13:41.054Z,102224.28
2018-08-31T01:16:09.935Z,102225.91
2018-08-31T01:18:38.760Z,102225.03
2018-08-31T01:21:07.636Z,102228.30
2018-08-31T01:23:36.444Z,102226.45
2018-08-31T01:26:05.315Z,102224.95
2018-08-31T01:28:34.212Z,102231.20
2018-08-31T01:31:03.199Z,102222.65
2018-08-31T01:33:31.993Z,102223.17
2018-08-31T01:36:01.202Z,102218.48
2018-08-31T01:38:30.008Z,102225.19
2018-08-31T01:40:58.908Z,102226.06
2018-08-31T01:43:27.681Z,102220.98
2018-08-31T01:45:56.564Z,102223.30
2018-08-31T01:48:25.427Z,102226.05
2018-08-31T01:50:59.702Z,102226.32
2018-08-31T01:53:28.876Z,102228.38
2018-08-31T01:55:57.697Z,102231.31
2018-08-31T01:58:26.535Z,102226.96
2018-08-31T02:00:55.720Z,102227.41
2018-08-31T02:03:24.525Z,102225.41
2018-08-31T02:05:53.427Z,102232.90
2018-08-31T02:08:22.256Z,102233.10
2018-08-31T02:10:51.068Z,102234.02
2018-08-31T02:13:19.959Z,102234.56
2018-08-31T02:15:48.775Z,102239.34
2018-08-31T02:18:17.671Z,102239.08
2018-08-31T02:20:46.430Z,102236.13
2018-08-31T02:23:15.570Z,102240.69
2018-08-31T02:25:44.385Z,102239.98
2018-08-31T02:28:13.218Z,102238.52
2018-08-31T02:30:42.120Z,102239.53
2018-08-31T02:33:10.972Z,102236.44
2018-08-31T02:35:39.752Z,102235.92
2018-08-31T02:38:08.810Z,102232.91
2018-08-31T02:40:37.613Z,102227.47
2018-08-31T02:43:06.564Z,102227.02
2018-08-31T02:45:35.448Z,102234.01
2018-08-31T02:48:04.288Z,102236.38
2018-08-31T02:50:33.120Z,102229.06
2018-08-31T02:53:02.012Z,102233.49
2018-08-31T02:55:31.095Z,102229.66
2018-08-31T02:57:59.931Z,102229.69
2018-08-31T03:00:28.715Z,102231.91
2018-08-31T03:02:57.556Z,102223.48
2018-08-31T03:05:26.381Z,102228.66
2018-08-31T03:07:55.339Z,102223.05
2018-08-31T03:10:24.145Z,102224.00
2018-08-31T03:12:52.963Z,102226.36
2018-08-31T03:15:21.783Z,102225.37
2018-08-31T03:17:50.573Z,102226.03
2018-08-31T03:20:19.576Z,102233.20
2018-08-31T03:22:48.360Z,102234.64
2018-08-31T03:25:17.160Z,102233.78
2018-08-31T03:27:45.964Z,102228.32
2018-08-31T03:30:14.832Z,102228.86
2018-08-31T03:32:43.680Z,102229.34
2018-08-31T03:35:12.900Z,102225.31
2018-08-31T03:37:41.690Z,102222.81
2018-08-31T03:40:10.569Z,102222.81
2018-08-31T03:42:39.443Z,102219.15
2018-08-31T03:45:08.437Z,102220.16
2018-08-31T03:47:37.318Z,102220.09
2018-08-31T03:50:06.600Z,102220.31
2018-08-31T03:52:35.411Z,102220.03
2018-08-31T03:55:04.486Z,102219.94
2018-08-31T03:57:33.400Z,102220.50
2018-08-31T04:00:02.327Z,102225.95
2018-08-31T04:02:31.092Z,102224.94
2018-08-31T04:05:00.000Z,102221.02
2018-08-31T04:07:28.805Z,102218.36
2018-08-31T04:09:57.979Z,102217.33
2018-08-31T04:12:26.786Z,102215.70
2018-08-31T04:14:55.618Z,102212.59
2018-08-31T04:17:24.525Z,102225.50
2018-08-31T04:19:53.359Z,102229.62
2018-08-31T04:22:22.323Z,102226.83
2018-08-31T04:24:51.189Z,102235.75
2018-08-31T04:27:20.018Z,102236.22
2018-08-31T04:29:48.888Z,102232.75
2018-08-31T04:32:17.734Z,102235.73
2018-08-31T04:34:46.589Z,102244.32
2018-08-31T04:37:15.548Z,102233.02
2018-08-31T04:39:44.312Z,102226.91
2018-08-31T04:42:13.126Z,102237.58
2018-08-31T04:44:41.888Z,102233.64
2018-08-31T04:47:10.840Z,102240.07
2018-08-31T04:49:39.786Z,102232.44
2018-08-31T04:52:08.644Z,102239.02
2018-08-31T04:54:37.424Z,102233.05
2018-08-31T04:57:06.253Z,102240.45
2018-08-31T04:59:35.176Z,102240.65
2018-08-31T05:02:04.149Z,102242.72
2018-08-31T05:04:32.935Z,102239.95
2018-08-31T05:07:01.728Z,102241.17
2018-08-31T05:09:30.522Z,102246.20
2018-08-31T05:11:59.527Z,102248.94
2018-08-31T05:14:28.362Z,102252.06
2018-08-31T05:16:57.120Z,102257.42
2018-08-31T05:19:26.214Z,102251.59
2018-08-31T05:21:54.988Z,102250.81
2018-08-31T05:24:23.907Z,102247.37
2018-08-31T05:26:52.724Z,102253.89
2018-08-31T05:29:21.667Z,102249.51
2018-08-31T05:31:50.497Z,102253.80
2018-08-31T05:34:19.434Z,102257.58
2018-08-31T05:36:48.351Z,102253.76
2018-08-31T05:39:17.209Z,102254.56
2018-08-31T05:41:46.012Z,102260.80
2018-08-31T05:44:14.846Z,102253.81
2018-08-31T05:46:43.709Z,102255.52
2018-08-31T05:49:12.578Z,102252.71
2018-08-31T05:51:41.342Z,102260.34
2018-08-31T05:54:10.483Z,102258.39
2018-08-31T05:56:39.258Z,102265.16
2018-08-31T05:59:08.117Z,102263.61
2018-08-31T06:01:37.071Z,102264.43
2018-08-31T06:04:06.233Z,102262.75
2018-08-31T06:06:34.991Z,102272.16
2018-08-31T06:09:06.351Z,102272.81
2018-08-31T06:11:35.167Z,102278.72
2018-08-31T06:14:04.021Z,102276.83
2018-08-31T06:16:32.868Z,102272.69
2018-08-31T06:19:01.601Z,102278.95
2018-08-31T06:21:30.445Z,102285.73
2018-08-31T06:23:59.236Z,102286.00
2018-08-31T06:26:28.138Z,102279.70
2018-08-31T06:28:56.979Z,102279.48
2018-08-31T06:31:25.944Z,102278.21
2018-08-31T06:33:54.729Z,102281.67
2018-08-31T06:36:23.585Z,102286.48
2018-08-31T06:38:52.421Z,102286.76
2018-08-31T06:41:21.284Z,102280.11
2018-08-31T06:43:50.325Z,102282.87
2018-08-31T06:46:19.210Z,102283.09
2018-08-31T06:48:48.156Z,102283.20
2018-08-31T06:51:17.145Z,102283.77
2018-08-31T06:53:45.928Z,102290.13
2018-08-31T06:56:15.055Z,102286.73
2018-08-31T06:58:43.842Z,102288.90
2018-08-31T07:01:12.749Z,102285.05
2018-08-31T07:03:41.601Z,102287.64
2018-08-31T07:06:10.539Z,102284.77
2018-08-31T07:08:39.317Z,102287.30
2018-08-31T07:11:08.358Z,102291.41
2018-08-31T07:13:37.219Z,102294.50
2018-08-31T07:16:06.064Z,102292.33
2018-08-31T07:18:34.912Z,102296.67
2018-08-31T07:21:03.732Z,102287.48
2018-08-31T07:23:32.551Z,102283.58
2018-08-31T07:26:01.372Z,102286.03
2018-08-31T07:28:30.313Z,102294.80
2018-08-31T07:30:59.134Z,102293.52
2018-08-31T07:33:27.931Z,102292.72
2018-08-31T07:35:56.768Z,102296.67
2018-08-31T07:38:25.607Z,102304.75
2018-08-31T07:40:54.460Z,102300.25
2018-08-31T07:43:23.308Z,102301.27
2018-08-31T07:45:52.087Z,102312.00
2018-08-31T07:48:20.908Z,102306.62
2018-08-31T07:50:49.696Z,102312.28
2018-08-31T07:53:18.588Z,102313.17
2018-08-31T07:55:47.396Z,102314.80
2018-08-31T07:58:16.279Z,102316.41
2018-08-31T08:00:45.102Z,102314.68
2018-08-31T08:03:13.924Z,102314.27
2018-08-31T08:05:42.870Z,102309.48
2018-08-31T08:08:11.695Z,102315.16
2018-08-31T08:10:40.488Z,102311.50
2018-08-31T08:13:09.555Z,102313.09
2018-08-31T08:15:38.355Z,102314.59
2018-08-31T08:18:07.505Z,102314.72
2018-08-31T08:20:36.412Z,102314.87
2018-08-31T08:23:05.267Z,102318.27
2018-08-31T08:25:34.132Z,102327.95
2018-08-31T08:28:02.945Z,102319.83
2018-08-31T08:30:31.887Z,102312.59
2018-08-31T08:33:00.672Z,102325.23
2018-08-31T08:35:29.527Z,102321.39
2018-08-31T08:37:59.235Z,102330.09
2018-08-31T08:40:28.068Z,102320.58
2018-08-31T08:42:56.933Z,102328.16
2018-08-31T08:45:25.786Z,102325.02
2018-08-31T08:47:54.586Z,102326.70
2018-08-31T08:50:23.424Z,102332.06
2018-08-31T08:52:52.213Z,102336.13
2018-08-31T08:55:21.138Z,102339.98
2018-08-31T08:57:49.928Z,102329.13
2018-08-31T09:00:18.905Z,102332.63
2018-08-31T09:02:47.734Z,102332.20
2018-08-31T09:05:16.569Z,102330.79
2018-08-31T09:07:45.440Z,102335.19
2018-08-31T09:10:14.275Z,102330.05
2018-08-31T09:12:43.167Z,102335.83
2018-08-31T09:15:11.988Z,102333.50
2018-08-31T09:17:40.919Z,102335.27
2018-08-31T09:20:09.917Z,102339.92
2018-08-31T09:22:39.052Z,102339.41
2018-08-31T09:25:07.849Z,102341.59
2018-08-31T09:27:36.718Z,102333.44
2018-08-31T09:30:05.779Z,102330.65
2018-08-31T09:32:34.734Z,102325.53
2018-08-31T09:35:03.659Z,102320.12
2018-08-31T09:37:32.463Z,102327.23
2018-08-31T09:40:01.259Z,102328.44
2018-08-31T09:42:30.114Z,102323.71
2018-08-31T09:44:58.995Z,102328.67
2018-08-31T09:47:27.839Z,102330.64
2018-08-31T09:49:56.622Z,102329.75
2018-08-31T09:52:25.463Z,102332.38
2018-08-31T09:54:54.243Z,102334.09
2018-08-31T09:57:23.197Z,102331.64
2018-08-31T09:59:51.980Z,102330.39
2018-08-31T10:02:29.148Z,102333.87
2018-08-31T10:04:58.427Z,102328.28
2018-08-31T10:07:27.342Z,102329.25
2018-08-31T10:09:56.133Z,102330.55
2018-08-31T10:12:24.986Z,102322.83
2018-08-31T10:14:54.112Z,102326.66
2018-08-31T10:17:22.944Z,102321.00
2018-08-31T10:19:51.908Z,102323.71
2018-08-31T10:22:20.792Z,102322.36
2018-08-31T10:24:49.595Z,102323.14
2018-08-31T10:27:18.746Z,102320.14
2018-08-31T10:29:47.559Z,102318.75
2018-08-31T10:32:16.624Z,102323.77
2018-08-31T10:34:45.476Z,102325.27
2018-08-31T10:37:14.264Z,102326.97
2018-08-31T10:39:43.087Z,102328.45
2018-08-31T10:42:11.850Z,102322.17
2018-08-31T10:44:40.753Z,102323.78
2018-08-31T10:47:09.545Z,102320.48
2018-08-31T10:49:38.397Z,102324.88
2018-08-31T10:52:07.323Z,102322.59
2018-08-31T10:54:36.230Z,102327.35
2018-08-31T10:57:05.079Z,102325.16
2018-08-31T10:59:33.936Z,102322.73
2018-08-31T11:02:02.844Z,102317.06
2018-08-31T11:04:31.672Z,102321.69
2018-08-31T11:07:00.479Z,102324.69
2018-08-31T11:09:29.387Z,102322.25
2018-08-31T11:11:58.159Z,102324.59
2018-08-31T11:14:27.000Z,102317.95
2018-08-31T11:16:55.777Z,102322.05
2018-08-31T11:19:24.607Z,102315.91
2018-08-31T11:21:53.485Z,102318.98
2018-08-31T11:24:22.332Z,102322.13
2018-08-31T11:26:51.132Z,102313.86
2018-08-31T11:29:19.956Z,102314.90
2018-08-31T11:31:48.836Z,102318.20
2018-08-31T11:34:17.812Z,102319.17
2018-08-31T11:36:46.680Z,102319.21
2018-08-31T11:39:15.491Z,102308.91
2018-08-31T11:41:44.311Z,102302.20
2018-08-31T11:44:13.169Z,102298.30
2018-08-31T11:46:42.075Z,102300.95
2018-08-31T11:49:10.871Z,102295.19
2018-08-31T11:51:39.746Z,102300.32
2018-08-31T11:54:08.532Z,102307.89
2018-08-31T11:56:37.374Z,102302.45
2018-08-31T11:59:06.271Z,102296.59
2018-08-31T12:01:35.123Z,102303.38
2018-08-31T12:04:03.967Z,102308.05
2018-08-31T12:06:32.808Z,102301.25
2018-08-31T12:09:01.608Z,102311.97
2018-08-31T12:11:30.529Z,102301.39
2018-08-31T12:13:59.379Z,102301.80
2018-08-31T12:16:28.172Z,102299.52
2018-08-31T12:18:57.022Z,102300.70
2018-08-31T12:21:25.882Z,102297.33
2018-08-31T12:23:54.796Z,102312.79
2018-08-31T12:26:23.591Z,102304.22
2018-08-31T12:28:52.394Z,102312.02
2018-08-31T12:31:21.232Z,102311.64
2018-08-31T12:33:50.041Z,102308.72
2018-08-31T12:36:18.867Z,102311.36
2018-08-31T12:38:47.683Z,102300.27
2018-08-31T12:41:16.502Z,102300.42
2018-08-31T12:43:45.422Z,102300.75
2018-08-31T12:46:14.163Z,102299.30
2018-08-31T12:48:43.116Z,102301.84
2018-08-31T12:51:11.951Z,102298.41
2018-08-31T12:53:40.789Z,102306.34
2018-08-31T12:56:09.732Z,102296.48
2018-08-31T12:58:38.531Z,102301.68
2018-08-31T13:01:07.441Z,102299.62
2018-08-31T13:03:36.287Z,102296.78
2018-08-31T13:06:05.179Z,102299.14
2018-08-31T13:08:33.951Z,102298.30
2018-08-31T13:11:02.861Z,102298.94
2018-08-31T13:13:31.683Z,102300.32
2018-08-31T13:16:00.596Z,102299.91
2018-08-31T13:18:29.404Z,102296.22
2018-08-31T13:20:58.359Z,102294.20
2018-08-31T13:23:27.252Z,102293.72
2018-08-31T13:25:56.383Z,102290.30
2018-08-31T13:28:25.281Z,102287.87
2018-08-31T13:30:54.164Z,102296.94
2018-08-31T13:33:22.931Z,102296.08
2018-08-31T13:35:51.780Z,102288.98
2018-08-31T13:38:20.660Z,102297.30
2018-08-31T13:40:49.504Z,102292.84
2018-08-31T13:43:18.564Z,102294.34
2018-08-31T13:45:47.453Z,102298.08
2018-08-31T13:48:16.235Z,102295.60
2018-08-31T13:50:45.233Z,102299.73
2018-08-31T13:53:13.993Z,102304.58
2018-08-31T13:55:42.769Z,102300.03
2018-08-31T13:58:11.628Z,102301.87
2018-08-31T14:00:40.382Z,102293.21
2018-08-31T14:03:09.248Z,102294.48
2018-08-31T14:05:38.011Z,102299.56
2018-08-31T14:08:06.975Z,102290.98
2018-08-31T14:10:35.787Z,102296.97
2018-08-31T14:13:04.667Z,102300.73
2018-08-31T14:15:33.478Z,102299.95
2018-08-31T14:18:02.312Z,102302.84
2018-08-31T14:20:31.118Z,102297.95
2018-08-31T14:22:59.935Z,102294.72
2018-08-31T14:25:28.752Z,102301.82
2018-08-31T14:27:57.765Z,102297.41
2018-08-31T14:30:26.576Z,102298.81
2018-08-31T14:32:55.413Z,102290.52
2018-08-31T14:35:24.181Z,102298.98
2018-08-31T14:37:53.155Z,102300.05
2018-08-31T14:40:22.041Z,102298.30
2018-08-31T14:42:50.863Z,102302.36
2018-08-31T14:45:19.893Z,102292.52
2018-08-31T14:47:48.792Z,102301.53
2018-08-31T14:50:17.575Z,102293.22
2018-08-31T14:52:46.487Z,102299.01
2018-08-31T14:55:15.385Z,102304.05
2018-08-31T14:57:44.163Z,102297.69
2018-08-31T15:00:13.075Z,102308.08
2018-08-31T15:02:42.007Z,102307.91
2018-08-31T15:05:10.899Z,102307.36
2018-08-31T15:07:39.644Z,102306.69
2018-08-31T15:10:08.584Z,102311.48
2018-08-31T15:12:37.367Z,102314.53
2018-08-31T15:15:06.608Z,102310.30
2018-08-31T15:17:35.400Z,102308.36
2018-08-31T15:20:04.387Z,102308.80
2018-08-31T15:22:33.207Z,102306.38
2018-08-31T15:25:02.097Z,102314.64
2018-08-31T15:27:30.828Z,102307.33
2018-08-31T15:29:59.761Z,102312.41
2018-08-31T15:32:28.536Z,102318.83
2018-08-31T15:34:57.336Z,102309.49
2018-08-31T15:37:26.144Z,102315.70
2018-08-31T15:39:54.945Z,102309.05
2018-08-31T15:42:23.862Z,102313.15
2018-08-31T15:44:52.655Z,102307.95
2018-08-31T15:47:21.424Z,102314.64
2018-08-31T15:49:50.378Z,102308.88
2018-08-31T15:52:19.041Z,102309.21
2018-08-31T15:54:48.119Z,102304.80
2018-08-31T15:57:16.964Z,102299.04
2018-08-31T15:59:45.750Z,102303.55
2018-08-31T16:02:14.557Z,102296.33
2018-08-31T16:04:43.352Z,102310.76
2018-08-31T16:07:12.342Z,102311.97
2018-08-31T16:09:41.117Z,102314.27
2018-08-31T16:12:09.984Z,102310.60
2018-08-31T16:14:38.766Z,102310.17
2018-08-31T16:17:07.588Z,102304.02
2018-08-31T16:19:36.444Z,102313.45
2018-08-31T16:22:05.328Z,102316.05
2018-08-31T16:24:34.100Z,102320.52
2018-08-31T16:27:02.964Z,102319.70
2018-08-31T16:29:31.738Z,102319.36
2018-08-31T16:32:00.758Z,102317.38
2018-08-31T16:34:29.515Z,102318.52
2018-08-31T16:36:58.331Z,102323.05
2018-08-31T16:39:27.108Z,102327.35
2018-08-31T16:41:55.963Z,102330.20
2018-08-31T16:44:24.813Z,102331.79
2018-08-31T16:46:53.708Z,102331.73
2018-08-31T16:49:22.476Z,102336.77
2018-08-31T16:51:51.299Z,102334.33
2018-08-31T16:54:20.082Z,102342.15
2018-08-31T16:56:49.492Z,102339.91
2018-08-31T16:59:18.514Z,102340.86
2018-08-31T17:01:47.288Z,102342.13
2018-08-31T17:04:16.184Z,102341.27
2018-08-31T17:06:44.971Z,102340.77
2018-08-31T17:09:13.911Z,102348.94
2018-08-31T17:11:42.694Z,102338.44
2018-08-31T17:14:11.507Z,102348.77
2018-08-31T17:16:40.287Z,102351.78
2018-08-31T17:19:09.235Z,102366.16
2018-08-31T17:21:38.106Z,102356.50
2018-08-31T17:24:06.953Z,102356.30
2018-08-31T17:26:41.347Z,102366.91
2018-08-31T17:29:15.828Z,102370.54
2018-08-31T17:31:50.292Z,102369.16
2018-08-31T17:34:24.617Z,102362.17
2018-08-31T17:36:59.041Z,102362.41
2018-08-31T17:39:27.915Z,102368.27
2018-08-31T17:41:56.815Z,102378.41
2018-08-31T17:44:26.249Z,102375.28
2018-08-31T17:46:55.215Z,102376.23
2018-08-31T17:49:24.780Z,102376.25
2018-08-31T17:51:53.634Z,102385.20
2018-08-31T17:54:22.534Z,102391.09
2018-08-31T17:56:51.699Z,102389.02
2018-08-31T17:59:20.551Z,102389.97
2018-08-31T18:01:49.319Z,102394.98
2018-08-31T18:04:18.198Z,102395.48
2018-08-31T18:06:46.977Z,102398.30
2018-08-31T18:09:15.746Z,102409.05
2018-08-31T18:11:44.563Z,102401.90
2018-08-31T18:14:13.415Z,102406.39
2018-08-31T18:16:42.297Z,102415.66
2018-08-31T18:19:11.043Z,102413.94
2018-08-31T18:21:39.912Z,102416.41
2018-08-31T18:24:08.710Z,102419.80
2018-08-31T18:26:37.529Z,102425.40
2018-08-31T18:29:06.909Z,102419.63
2018-08-31T18:31:35.857Z,102420.53
2018-08-31T18:34:04.638Z,102428.62
2018-08-31T18:36:33.497Z,102430.25
2018-08-31T18:39:02.396Z,102429.23
2018-08-31T18:41:31.243Z,102430.67
2018-08-31T18:44:00.062Z,102430.75
2018-08-31T18:46:28.945Z,102433.17
2018-08-31T18:48:57.749Z,102430.13
2018-08-31T18:51:26.705Z,102431.33
2018-08-31T18:53:55.487Z,102429.70
2018-08-31T18:56:24.371Z,102429.96
2018-08-31T18:58:53.476Z,102432.06
2018-08-31T19:01:22.286Z,102428.80
2018-08-31T19:03:51.311Z,102436.41
2018-08-31T19:06:20.893Z,102445.45
2018-08-31T19:08:50.747Z,102448.08
2018-08-31T19:11:20.144Z,102450.50
2018-08-31T19:13:49.262Z,102447.39
2018-08-31T19:16:18.067Z,102445.59
2018-08-31T19:18:46.921Z,102447.86
2018-08-31T19:21:16.293Z,102450.75
2018-08-31T19:23:46.397Z,102449.95
2018-08-31T19:26:15.200Z,102452.92
2018-08-31T19:28:44.060Z,102452.23
2018-08-31T19:31:13.453Z,102452.21
2018-08-31T19:33:42.509Z,102456.12
2018-08-31T19:36:11.789Z,102453.23
2018-08-31T19:38:41.314Z,102459.06
2018-08-31T19:41:10.137Z,102461.31
2018-08-31T19:43:38.994Z,102455.75
2018-08-31T19:46:07.864Z,102455.47
2018-08-31T19:48:36.672Z,102453.09
2018-08-31T19:51:05.510Z,102451.46
2018-08-31T19:53:34.373Z,102454.42
2018-08-31T19:56:03.140Z,102457.41
2018-08-31T19:58:32.030Z,102456.27
2018-08-31T20:01:00.819Z,102453.05
2018-08-31T20:03:29.652Z,102461.70
2018-08-31T20:05:58.404Z,102461.91
2018-08-31T20:08:27.230Z,102470.44
2018-08-31T20:10:56.175Z,102465.48
2018-08-31T20:13:25.032Z,102472.03
2018-08-31T20:15:53.836Z,102472.45
2018-08-31T20:18:22.610Z,102468.65
2018-08-31T20:20:51.444Z,102467.98
2018-08-31T20:23:20.296Z,102469.36
2018-08-31T20:25:49.131Z,102465.62
2018-08-31T20:28:17.951Z,102470.37
2018-08-31T20:30:46.861Z,102470.23
2018-08-31T20:33:15.623Z,102468.67
2018-08-31T20:35:48.763Z,102472.05
2018-08-31T20:38:17.533Z,102468.92
2018-08-31T20:40:46.393Z,102479.98
2018-08-31T20:43:15.178Z,102476.68
2018-08-31T20:45:44.137Z,102480.43
2018-08-31T20:48:13.052Z,102475.55
2018-08-31T20:50:41.948Z,102481.92
2018-08-31T20:53:10.737Z,102485.32
2018-08-31T20:55:39.632Z,102484.83
2018-08-31T20:58:08.899Z,102483.52
2018-08-31T21:00:38.301Z,102489.34
2018-08-31T21:03:07.368Z,102491.11
2018-08-31T21:05:36.213Z,102493.44
2018-08-31T21:08:05.068Z,102492.91
2018-08-31T21:10:33.875Z,102486.95
2018-08-31T21:13:02.796Z,102494.66
2018-08-31T21:15:31.554Z,102493.50
2018-08-31T21:18:00.632Z,102491.23
2018-08-31T21:20:29.394Z,102494.85
2018-08-31T21:22:58.231Z,102492.75
2018-08-31T21:25:27.504Z,102496.38
2018-08-31T21:27:56.347Z,102502.52
2018-08-31T21:30:25.251Z,102500.26
2018-08-31T21:32:54.091Z,102503.55
2018-08-31T21:35:22.884Z,102498.30
2018-08-31T21:37:51.806Z,102499.04
2018-08-31T21:40:20.628Z,102500.86
2018-08-31T21:42:49.469Z,102501.93
2018-08-31T21:45:19.276Z,102504.92
2018-08-31T21:47:48.060Z,102506.52
2018-08-31T21:50:16.976Z,102506.84
2018-08-31T21:52:45.817Z,102511.20
2018-08-31T21:55:14.784Z,102514.28
2018-08-31T21:57:43.816Z,102512.73
2018-08-31T22:00:17.194Z,102506.06
2018-08-31T22:02:46.196Z,102516.02
2018-08-31T22:05:14.999Z,102507.28
2018-08-31T22:07:43.903Z,102515.16
2018-08-31T22:10:12.844Z,102509.33
2018-08-31T22:12:41.770Z,102518.69
2018-08-31T22:15:14.035Z,102516.94
2018-08-31T22:17:42.789Z,102518.83
2018-08-31T22:20:11.610Z,102519.31
2018-08-31T22:22:40.460Z,102521.69
2018-08-31T22:25:09.368Z,102522.16
2018-08-31T22:27:38.263Z,102511.17
2018-08-31T22:30:07.182Z,102519.72
2018-08-31T22:32:36.080Z,102519.61
2018-08-31T22:35:05.128Z,102522.05
2018-08-31T22:37:34.047Z,102520.72
2018-08-31T22:40:03.057Z,102515.69
2018-08-31T22:42:31.890Z,102520.12
2018-08-31T22:45:00.722Z,102510.22
2018-08-31T22:47:29.532Z,102504.19
2018-08-31T22:49:58.308Z,102499.66
2018-08-31T22:52:27.216Z,102501.91
2018-08-31T22:54:56.129Z,102500.92
2018-08-31T22:57:24.928Z,102504.34
2018-08-31T22:59:53.711Z,102505.81
2018-08-31T23:02:22.505Z,102509.17
2018-08-31T23:04:51.376Z,102506.59
2018-08-31T23:07:25.755Z,102503.63
2018-08-31T23:09:54.533Z,102502.59
2018-08-31T23:12:23.378Z,102506.62
2018-08-31T23:14:52.244Z,102502.11
2018-08-31T23:17:25.586Z,102505.72
2018-08-31T23:19:54.383Z,102509.64
2018-08-31T23:22:23.235Z,102512.32
2018-08-31T23:24:52.147Z,102510.47
2018-08-31T23:27:21.040Z,102507.25
2018-08-31T23:29:49.824Z,102504.22
2018-08-31T23:32:18.704Z,102503.18
2018-08-31T23:34:47.447Z,102505.17
2018-08-31T23:37:16.248Z,102506.14
2018-08-31T23:39:45.125Z,102503.84
2018-08-31T23:42:13.990Z,102509.46
2018-08-31T23:44:42.788Z,102501.81
2018-08-31T23:47:11.539Z,102499.25
2018-08-31T23:49:40.349Z,102498.27
2018-08-31T23:52:09.206Z,102500.84
2018-08-31T23:54:38.066Z,102499.30
2018-08-31T23:57:06.904Z,102502.84
2018-08-31T23:59:35.743Z,102508.42
